Time;durP1;ratioP1;P1;durP2;ratioP2;P2;SDS_P1;SDS_P2;PMS_P1;PMS_P2;Temp;Humidity;BMP_temperature;BMP_pressure;BME280_temperature;BME280_humidity;BME280_pressure;Samples;Min_cycle;Max_cycle;Signal;HPM_P1;HPM_P2
2022/09/22 00:01:08;;;;;;;144.07;49.80;;;;;;;6.09;100.00;102226.91;1978147;28;20040;-78
2022/09/22 00:02:05;;;;;;;;;;;;;;;6.04;100.00;102221.72;1979231;28;20052;-79
2022/09/22 00:03:03;;;;;;;126.95;44.17;;;;;;;6.01;100.00;102224.25;1978583;28;19956;-77
2022/09/22 00:04:05;;;;;;;130.07;47.15;;;;;;;6.02;100.00;102226.00;1978418;28;20409;-79
2022/09/22 00:05:03;;;;;;;139.73;48.65;;;;;;;6.03;100.00;102222.56;1978518;28;20061;-78
2022/09/22 00:06:10;;;;;;;134.63;49.38;;;;;;;6.05;100.00;102218.25;1978454;28;20031;-78
2022/09/22 00:07:08;;;;;;;142.73;48.95;;;;;;;6.03;100.00;102217.38;1978432;28;20025;-78
2022/09/22 00:08:05;;;;;;;138.60;48.80;;;;;;;6.04;100.00;102213.94;1978670;28;20017;-76
2022/09/22 00:09:07;;;;;;;131.95;47.15;;;;;;;6.03;100.00;102212.19;1978052;28;20055;-79
2022/09/22 00:10:06;;;;;;;137.85;49.17;;;;;;;6.01;100.00;102219.06;1970306;28;20053;-78
2022/09/22 00:11:15;;;;;;;146.18;51.50;;;;;;;6.00;100.00;102217.38;1975713;28;20450;-80
2022/09/22 00:12:21;;;;;;;138.88;50.08;;;;;;;5.99;100.00;102218.25;1978500;28;20440;-79
2022/09/22 00:13:18;;;;;;;144.73;49.88;;;;;;;6.00;100.00;102222.53;1978430;28;20021;-78
2022/09/22 00:14:24;;;;;;;139.88;49.88;;;;;;;5.99;100.00;102220.81;1978435;28;20053;-80
2022/09/22 00:15:22;;;;;;;160.57;53.05;;;;;;;5.99;100.00;102218.25;1978545;28;20489;-79
2022/09/22 00:16:24;;;;;;;150.27;52.22;;;;;;;5.97;100.00;102217.34;1978366;28;20029;-79
2022/09/22 00:17:22;;;;;;;159.48;52.03;;;;;;;5.96;100.00;102219.09;1978512;28;20492;-77
2022/09/22 00:18:22;;;;;;;153.95;52.75;;;;;;;5.94;100.00;102213.03;1978806;28;20033;-78
2022/09/22 00:19:27;;;;;;;144.20;51.25;;;;;;;5.94;100.00;102218.22;1978462;28;20028;-76
2022/09/22 00:20:24;;;;;;;137.52;49.25;;;;;;;5.92;100.00;102212.19;1985570;28;20089;-79
2022/09/22 00:21:26;;;;;;;151.07;52.92;;;;;;;5.91;100.00;102213.03;1985796;28;20070;-81
2022/09/22 00:22:24;;;;;;;142.07;49.92;;;;;;;5.89;100.00;102207.84;1978369;28;20063;-78
2022/09/22 00:23:26;;;;;;;143.20;49.80;;;;;;;5.89;100.00;102215.63;1978653;28;20029;-77
2022/09/22 00:24:26;;;;;;;134.82;49.22;;;;;;;5.89;100.00;102213.03;1978411;28;20028;-77
2022/09/22 00:25:24;;;;;;;145.20;48.83;;;;;;;5.88;100.00;102208.72;1978579;28;20489;-79
2022/09/22 00:26:23;;;;;;;142.25;49.88;;;;;;;5.87;100.00;102217.38;1978297;28;20049;-78
2022/09/22 00:27:20;;;;;;;140.70;50.05;;;;;;;5.86;100.00;102209.59;1978435;28;20029;-79
2022/09/22 00:28:19;;;;;;;136.27;49.83;;;;;;;5.84;100.00;102217.38;1978166;28;20035;-77
2022/09/22 00:29:20;;;;;;;142.70;50.60;;;;;;;5.86;100.00;102210.47;1977644;28;20026;-77
2022/09/22 00:30:17;;;;;;;138.48;49.10;;;;;;;5.87;100.00;102219.09;1977564;28;20040;-79
2022/09/22 00:31:20;;;;;;;137.88;51.03;;;;;;;5.86;100.00;102218.25;1978044;28;20094;-78
2022/09/22 00:32:18;;;;;;;132.23;49.80;;;;;;;5.85;100.00;102213.91;1978099;28;20036;-78
2022/09/22 00:33:15;;;;;;;144.02;49.80;;;;;;;5.84;100.00;102214.78;1978179;28;20607;-77
2022/09/22 00:34:21;;;;;;;138.45;49.75;;;;;;;5.86;100.00;102215.66;1978197;28;20616;-79
2022/09/22 00:35:19;;;;;;;132.77;47.35;;;;;;;5.84;100.00;102212.19;1978104;28;20033;-78
2022/09/22 00:36:25;;;;;;;135.25;47.72;;;;;;;5.83;100.00;102210.47;1978005;28;20484;-78
2022/09/22 00:37:26;;;;;;;131.00;48.75;;;;;;;5.81;100.00;102214.78;1978224;28;20520;-79
2022/09/22 00:38:23;;;;;;;;;;;;;;;5.80;100.00;102210.47;1978699;28;20076;-79
2022/09/22 00:39:21;;;;;;;127.72;42.55;;;;;;;5.75;100.00;102212.22;1978158;28;19924;-79
2022/09/22 00:40:18;;;;;;;123.68;44.78;;;;;;;5.76;100.00;102208.75;1978193;28;20509;-78
2022/09/22 00:41:27;;;;;;;127.00;46.30;;;;;;;5.75;100.00;102212.22;1975750;28;20347;-78
2022/09/22 00:42:24;;;;;;;124.68;45.92;;;;;;;5.74;100.00;102205.28;1978041;28;20040;-78
2022/09/22 00:43:26;;;;;;;134.20;46.80;;;;;;;5.73;100.00;102204.44;1977438;28;20036;-76
2022/09/22 00:44:43;;;;;;;135.90;49.05;;;;;;;5.72;100.00;102212.19;1977672;28;20061;-79
2022/09/22 00:45:42;;;;;;;129.52;45.33;;;;;;;5.70;100.00;102208.72;1978115;28;20044;-78
2022/09/22 00:46:44;;;;;;;139.10;48.13;;;;;;;5.70;100.00;102208.72;1977533;28;20027;-79
2022/09/22 00:47:46;;;;;;;137.98;48.85;;;;;;;5.70;100.00;102209.59;1977583;28;20025;-79
2022/09/22 00:48:51;;;;;;;149.30;49.88;;;;;;;5.72;100.00;102207.03;1978243;28;20021;-79
2022/09/22 00:50:18;;;;;;;145.05;50.05;;;;;;;5.70;100.00;102208.72;1978105;28;20021;-76
2022/09/22 00:51:22;;;;;;;144.00;48.45;;;;;;;5.71;100.00;102200.13;1977490;28;20076;-79
2022/09/22 00:52:31;;;;;;;143.90;48.75;;;;;;;5.71;100.00;102202.72;1977479;28;20039;-77
2022/09/22 00:53:30;;;;;;;153.88;50.22;;;;;;;5.70;100.00;102199.25;1977986;28;20090;-80
2022/09/22 00:54:28;;;;;;;157.30;52.80;;;;;;;5.72;100.00;102207.88;1977588;28;20025;-79
2022/09/22 00:55:52;;;;;;;156.55;51.75;;;;;;;5.72;100.00;102201.84;1977294;28;20528;-79
2022/09/22 00:57:12;;;;;;;169.32;52.13;;;;;;;5.69;100.00;102201.84;1982781;28;20036;-79
2022/09/22 00:58:20;;;;;;;181.10;57.13;;;;;;;5.65;100.00;102204.41;1985272;28;20051;-79
2022/09/22 00:59:23;;;;;;;173.55;56.13;;;;;;;5.65;100.00;102207.00;1984849;28;20024;-79
2022/09/22 01:00:22;;;;;;;183.15;59.35;;;;;;;5.64;100.00;102200.09;1978038;28;20045;-77
2022/09/22 01:01:25;;;;;;;180.68;58.83;;;;;;;5.65;100.00;102201.81;1978191;28;20036;-79
2022/09/22 01:02:24;;;;;;;176.05;58.35;;;;;;;5.65;100.00;102191.47;1978016;28;20109;-78
2022/09/22 01:03:23;;;;;;;175.10;55.28;;;;;;;5.65;100.00;102190.63;1978196;28;20041;-78
2022/09/22 01:04:21;;;;;;;199.48;62.33;;;;;;;5.65;100.00;102195.81;1977838;28;20033;-78
2022/09/22 01:05:22;;;;;;;192.40;62.22;;;;;;;5.65;100.00;102196.66;1977306;28;20039;-78
2022/09/22 01:06:26;;;;;;;188.88;60.78;;;;;;;5.63;100.00;102198.38;1977475;28;20025;-77
2022/09/22 01:07:28;;;;;;;195.05;60.40;;;;;;;5.63;100.00;102192.34;1985089;28;20457;-80
2022/09/22 01:08:33;;;;;;;178.52;57.25;;;;;;;5.63;100.00;102190.63;1985163;28;20025;-78
2022/09/22 01:09:32;;;;;;;188.18;60.63;;;;;;;5.62;100.00;102191.50;1978089;28;20029;-78
2022/09/22 01:10:30;;;;;;;187.25;60.67;;;;;;;5.61;100.00;102194.91;1978092;28;20387;-76
2022/09/22 01:11:29;;;;;;;186.07;59.72;;;;;;;5.61;100.00;102189.75;1975500;28;20119;-79
2022/09/22 01:12:29;;;;;;;196.18;62.10;;;;;;;5.62;100.00;102188.91;1985344;28;20039;-78
2022/09/22 01:13:54;;;;;;;188.18;60.97;;;;;;;5.61;100.00;102184.56;1985302;28;20053;-77
2022/09/22 01:15:12;;;;;;;179.48;58.05;;;;;;;5.62;100.00;102186.31;1978025;28;20040;-78
2022/09/22 01:16:36;;;;;;;163.10;55.63;;;;;;;5.61;100.00;102181.13;1977786;28;20087;-77
2022/09/22 01:18:11;;;;;;;182.05;57.25;;;;;;;5.56;100.00;102178.53;1978062;28;20186;-77
2022/09/22 01:19:40;;;;;;;170.90;52.92;;;;;;;5.53;100.00;102178.53;1977971;28;20075;-77
2022/09/22 01:21:27;;;;;;;165.60;52.90;;;;;;;5.50;100.00;102173.34;1977811;28;20021;-78
2022/09/22 01:23:04;;;;;;;155.80;51.75;;;;;;;5.47;100.00;102170.75;1977811;28;20036;-78
2022/09/22 01:24:39;;;;;;;159.07;52.90;;;;;;;5.44;100.00;102176.78;1985153;28;20032;-76
2022/09/22 01:26:09;;;;;;;157.30;51.05;;;;;;;5.45;100.00;102178.53;1985138;28;20028;-78
2022/09/22 01:27:31;;;;;;;158.70;51.78;;;;;;;5.45;100.00;102170.75;1981730;28;20403;-76
2022/09/22 01:28:43;;;;;;;159.48;52.50;;;;;;;5.45;100.00;102172.47;1977985;28;20038;-76
2022/09/22 01:30:04;;;;;;;170.20;54.53;;;;;;;5.44;100.00;102170.75;1977831;28;20052;-78
2022/09/22 01:31:11;;;;;;;174.70;53.67;;;;;;;5.44;100.00;102173.34;1977476;28;20067;-77
2022/09/22 01:32:30;;;;;;;171.20;57.22;;;;;;;5.45;100.00;102168.19;1977774;28;20515;-78
2022/09/22 01:33:53;;;;;;;177.65;55.75;;;;;;;5.41;100.00;102180.25;1977644;28;20450;-78
2022/09/22 01:35:20;;;;;;;176.60;53.50;;;;;;;5.40;100.00;102175.94;1985030;28;20028;-78
2022/09/22 01:37:01;;;;;;;169.70;55.03;;;;;;;5.42;100.00;102173.34;1968862;28;20038;-78
2022/09/22 01:39:00;;;;;;;166.52;51.45;;;;;;;5.36;100.00;102169.03;1954027;28;20072;-78
2022/09/22 01:40:20;;;;;;;173.05;50.55;;;;;;;5.31;100.00;102173.34;1971774;28;20552;-76
2022/09/22 01:41:37;;;;;;;170.90;52.67;;;;;;;5.32;100.00;102163.84;1975304;28;20622;-77
2022/09/22 01:42:56;;;;;;;164.52;51.90;;;;;;;5.31;100.00;102169.88;1977740;28;20033;-77
2022/09/22 01:44:07;;;;;;;162.60;52.85;;;;;;;5.28;100.00;102166.41;1977591;28;20025;-76
2022/09/22 01:45:16;;;;;;;173.38;55.53;;;;;;;5.30;100.00;102163.81;1977787;28;20041;-78
2022/09/22 01:46:28;;;;;;;179.30;55.83;;;;;;;5.31;100.00;102164.69;1977721;28;20090;-76
2022/09/22 01:47:54;;;;;;;174.50;56.50;;;;;;;5.30;100.00;102158.66;1977175;28;20030;-76
2022/09/22 01:48:56;;;;;;;168.90;54.25;;;;;;;5.28;100.00;102161.22;1968914;28;20128;-77
2022/09/22 01:50:05;;;;;;;173.77;56.22;;;;;;;5.28;100.00;102160.38;1977040;28;20037;-76
2022/09/22 01:51:23;;;;;;;178.75;56.65;;;;;;;5.32;100.00;102156.94;1977822;28;20090;-77
2022/09/22 01:52:28;;;;;;;180.30;55.20;;;;;;;5.29;100.00;102151.75;1976982;28;20516;-75
2022/09/22 01:53:33;;;;;;;181.90;57.22;;;;;;;5.28;100.00;102155.22;1977346;28;20062;-76
2022/09/22 01:54:40;;;;;;;183.20;56.55;;;;;;;5.28;100.00;102150.88;1977778;28;20079;-75
2022/09/22 01:55:43;;;;;;;189.07;59.92;;;;;;;5.28;100.00;102145.69;1977748;28;20400;-76
2022/09/22 01:56:48;;;;;;;190.40;61.15;;;;;;;5.27;100.00;102158.66;1977531;28;20021;-78
2022/09/22 01:58:06;;;;;;;187.77;61.38;;;;;;;5.25;100.00;102144.84;1977759;28;20048;-76
2022/09/22 01:59:07;;;;;;;186.52;58.25;;;;;;;5.24;100.00;102149.16;1977732;28;20376;-76
2022/09/22 02:00:08;;;;;;;195.70;61.05;;;;;;;5.23;100.00;102147.44;1977523;28;20113;-76
2022/09/22 02:01:14;;;;;;;186.02;59.40;;;;;;;5.22;100.00;102150.00;1977678;28;20040;-78
2022/09/22 02:02:28;;;;;;;189.18;59.88;;;;;;;5.22;100.00;102152.59;1976852;28;20115;-76
2022/09/22 02:03:38;;;;;;;173.95;57.83;;;;;;;5.21;100.00;102150.88;1977169;28;20029;-77
2022/09/22 02:04:45;;;;;;;182.45;57.88;;;;;;;5.23;100.00;102146.56;1977610;28;20485;-78
2022/09/22 02:06:01;;;;;;;193.70;58.80;;;;;;;5.24;100.00;102145.72;1977493;28;20032;-77
2022/09/22 02:07:13;;;;;;;181.80;59.17;;;;;;;5.22;100.00;102150.00;1977835;28;20100;-76
2022/09/22 02:08:37;;;;;;;178.55;57.03;;;;;;;5.21;100.00;102148.31;1977623;28;20474;-77
2022/09/22 02:09:41;;;;;;;176.65;55.00;;;;;;;5.17;100.00;102142.28;1977654;28;20069;-76
2022/09/22 02:10:43;;;;;;;188.00;59.50;;;;;;;5.17;100.00;102142.28;1977501;28;20025;-76
2022/09/22 02:11:41;;;;;;;185.43;58.92;;;;;;;5.18;100.00;102143.97;1975377;28;20040;-77
2022/09/22 02:12:39;;;;;;;190.13;60.35;;;;;;;5.19;100.00;102144.81;1976864;28;20081;-77
2022/09/22 02:13:37;;;;;;;180.80;59.10;;;;;;;5.20;100.00;102141.41;1969173;28;20051;-77
2022/09/22 02:14:37;;;;;;;173.65;59.88;;;;;;;5.20;100.00;102141.41;1976114;28;20035;-76
2022/09/22 02:16:53;;;;;;;187.48;58.45;;;;;;;5.18;100.00;102143.09;1977394;28;20025;-75
2022/09/22 02:18:06;;;;;;;188.23;59.80;;;;;;;5.17;100.00;102141.41;1977541;28;20029;-76
2022/09/22 02:19:15;;;;;;;175.18;57.28;;;;;;;5.13;100.00;102136.22;1977512;28;20029;-76
2022/09/22 02:20:15;;;;;;;182.15;57.13;;;;;;;5.13;100.00;102132.75;1977500;28;20033;-76
2022/09/22 02:21:18;;;;;;;186.80;59.08;;;;;;;5.11;100.00;102137.94;1977469;28;20025;-77
2022/09/22 02:22:16;;;;;;;179.88;58.95;;;;;;;5.10;100.00;102130.19;1977522;28;20025;-76
2022/09/22 02:23:19;;;;;;;181.45;59.83;;;;;;;5.09;100.00;102141.38;1977313;28;20029;-77
2022/09/22 02:24:44;;;;;;;194.68;61.95;;;;;;;5.05;100.00;102130.16;1977407;28;20499;-77
2022/09/22 02:25:44;;;;;;;179.18;56.25;;;;;;;5.01;100.00;102137.06;1977464;28;20045;-76
2022/09/22 02:26:42;;;;;;;183.02;57.28;;;;;;;5.00;100.00;102130.16;1977489;28;20032;-73
2022/09/22 02:27:42;;;;;;;176.70;58.03;;;;;;;4.98;100.00;102129.28;1977371;28;20507;-75
2022/09/22 02:28:43;;;;;;;181.82;58.45;;;;;;;4.98;100.00;102131.00;1977579;28;20029;-77
2022/09/22 02:29:50;;;;;;;189.20;58.63;;;;;;;4.99;100.00;102132.72;1976687;28;20063;-75
2022/09/22 02:30:55;;;;;;;184.43;57.60;;;;;;;4.98;100.00;102123.25;1969295;28;20473;-74
2022/09/22 02:31:55;;;;;;;176.85;58.35;;;;;;;5.00;100.00;102129.31;1976766;28;20042;-76
2022/09/22 02:32:59;;;;;;;178.90;58.35;;;;;;;4.99;100.00;102133.59;1984639;28;20028;-75
2022/09/22 02:34:05;;;;;;;191.88;58.95;;;;;;;4.97;100.00;102132.75;1984602;28;20496;-75
2022/09/22 02:35:05;;;;;;;175.80;56.72;;;;;;;4.97;100.00;102134.47;1984722;28;20079;-76
2022/09/22 02:36:10;;;;;;;185.68;58.63;;;;;;;4.96;100.00;102130.16;1984600;28;20035;-74
2022/09/22 02:37:21;;;;;;;182.10;60.03;;;;;;;4.95;100.00;102120.66;1977487;28;20033;-75
2022/09/22 02:38:30;;;;;;;178.75;56.75;;;;;;;4.92;100.00;102121.50;1977284;28;20047;-76
2022/09/22 02:39:42;;;;;;;182.15;57.88;;;;;;;4.92;100.00;102129.28;1977428;28;20118;-75
2022/09/22 02:40:52;;;;;;;179.18;55.70;;;;;;;4.93;100.00;102122.38;1977490;28;20033;-75
2022/09/22 02:42:50;;;;;;;173.27;57.33;;;;;;;4.93;100.00;102127.56;1975785;28;20025;-76
2022/09/22 02:44:27;;;;;;;164.27;52.25;;;;;;;4.87;100.00;102120.66;1968574;28;20084;-75
2022/09/22 02:46:18;;;;;;;167.63;50.78;;;;;;;4.88;100.00;102122.38;1964159;28;20052;-74
2022/09/22 02:47:42;;;;;;;153.65;49.40;;;;;;;4.87;100.00;102118.06;1962160;28;20041;-75
2022/09/22 02:48:53;;;;;;;157.15;50.58;;;;;;;4.85;100.00;102118.06;1977418;28;20026;-75
2022/09/22 02:49:56;;;;;;;169.25;53.30;;;;;;;4.84;100.00;102118.91;1977540;28;20041;-75
2022/09/22 02:50:54;;;;;;;161.40;53.78;;;;;;;4.84;100.00;102118.03;1977354;28;20484;-74
2022/09/22 02:51:52;;;;;;;177.43;55.55;;;;;;;4.83;100.00;102116.31;1977358;28;20032;-75
2022/09/22 02:52:56;;;;;;;186.55;56.88;;;;;;;4.82;100.00;102115.44;1984526;28;20019;-75
2022/09/22 02:53:53;;;;;;;172.73;55.92;;;;;;;4.82;100.00;102112.88;1984824;28;20029;-76
2022/09/22 02:54:55;;;;;;;179.85;56.72;;;;;;;4.80;100.00;102106.84;1977322;28;20107;-76
2022/09/22 02:55:53;;;;;;;184.27;57.63;;;;;;;4.79;100.00;102107.69;1976631;28;20077;-75
2022/09/22 02:56:56;;;;;;;178.25;57.00;;;;;;;4.80;100.00;102112.00;1976558;28;20025;-77
2022/09/22 02:57:54;;;;;;;177.50;56.53;;;;;;;4.80;100.00;102111.13;1976558;28;20034;-76
2022/09/22 02:58:54;;;;;;;176.55;56.25;;;;;;;4.79;100.00;102110.25;1977317;28;20031;-75
2022/09/22 02:59:52;;;;;;;179.85;56.00;;;;;;;4.79;100.00;102107.69;1979014;28;20478;-74
2022/09/22 03:00:49;;;;;;;171.43;56.03;;;;;;;4.79;100.00;102106.84;1978191;28;20054;-75
2022/09/22 03:01:49;;;;;;;181.60;56.60;;;;;;;4.80;100.00;102101.66;1978415;28;20094;-75
2022/09/22 03:02:47;;;;;;;180.38;57.08;;;;;;;4.80;100.00;102106.84;1978863;28;20060;-74
2022/09/22 03:03:44;;;;;;;181.38;56.50;;;;;;;4.80;100.00;102106.84;1978942;28;20033;-75
2022/09/22 03:04:42;;;;;;;178.48;55.92;;;;;;;4.79;100.00;102110.25;1978843;28;20032;-75
2022/09/22 03:05:40;;;;;;;182.38;57.13;;;;;;;4.79;100.00;102110.25;1978906;28;20025;-78
2022/09/22 03:06:43;;;;;;;177.13;55.83;;;;;;;4.77;100.00;102106.84;1978875;28;20101;-74
2022/09/22 03:07:40;;;;;;;169.20;54.85;;;;;;;4.75;100.00;102103.34;1978967;28;20037;-75
2022/09/22 03:08:38;;;;;;;182.65;54.45;;;;;;;4.76;100.00;102105.09;1978912;28;20031;-75
2022/09/22 03:09:38;;;;;;;165.00;54.47;;;;;;;4.74;100.00;102104.22;1978795;28;20030;-74
2022/09/22 03:10:35;;;;;;;184.70;57.25;;;;;;;4.72;100.00;102104.22;1978843;28;20389;-74
2022/09/22 03:11:33;;;;;;;176.73;56.97;;;;;;;4.72;100.00;102104.22;1975835;28;20122;-74
2022/09/22 03:12:33;;;;;;;177.95;54.60;;;;;;;4.70;100.00;102100.78;1978328;28;20014;-75
2022/09/22 03:13:30;;;;;;;166.68;54.67;;;;;;;4.70;100.00;102102.50;1978148;28;20079;-76
2022/09/22 03:14:33;;;;;;;182.10;56.70;;;;;;;4.70;100.00;102102.50;1970463;28;20201;-74
2022/09/22 03:15:31;;;;;;;171.88;53.97;;;;;;;4.66;100.00;102103.34;1970205;28;20030;-75
2022/09/22 03:16:29;;;;;;;178.00;56.13;;;;;;;4.64;100.00;102100.75;1978031;28;20017;-76
2022/09/22 03:17:26;;;;;;;166.38;54.83;;;;;;;4.63;100.00;102099.03;1978702;28;20038;-75
2022/09/22 03:18:23;;;;;;;181.93;55.90;;;;;;;4.63;100.00;102099.88;1978972;28;20039;-73
2022/09/22 03:19:24;;;;;;;175.05;56.63;;;;;;;4.62;100.00;102098.16;1978804;28;20025;-74
2022/09/22 03:20:22;;;;;;;;;;;;;;;4.61;100.00;102101.63;1979182;28;20072;-75
2022/09/22 03:21:19;;;;;;;158.00;49.40;;;;;;;4.57;100.00;102094.72;1978661;28;20642;-76
2022/09/22 03:22:17;;;;;;;165.07;51.47;;;;;;;4.56;100.00;102100.75;1978813;28;20549;-75
2022/09/22 03:23:14;;;;;;;169.95;53.38;;;;;;;4.53;100.00;102092.97;1978741;28;20088;-75
2022/09/22 03:24:12;;;;;;;175.75;55.25;;;;;;;4.53;100.00;102092.97;1978740;28;20559;-74
2022/09/22 03:25:10;;;;;;;174.25;54.15;;;;;;;4.55;100.00;102100.75;1985946;28;20103;-75
2022/09/22 03:26:08;;;;;;;167.25;53.38;;;;;;;4.53;100.00;102092.97;1985963;28;20423;-74
2022/09/22 03:27:08;;;;;;;179.23;55.30;;;;;;;4.52;100.00;102091.25;1978037;28;20069;-74
2022/09/22 03:28:06;;;;;;;173.32;54.55;;;;;;;4.52;100.00;102096.44;1977820;28;20037;-74
2022/09/22 03:29:09;;;;;;;172.20;56.60;;;;;;;4.50;100.00;102092.97;1978836;28;20469;-75
2022/09/22 03:30:08;;;;;;;159.63;53.33;;;;;;;4.50;100.00;102092.97;1978604;28;20037;-74
2022/09/22 03:31:06;;;;;;;169.98;54.35;;;;;;;4.53;100.00;102090.38;1978680;28;20040;-74
2022/09/22 03:32:04;;;;;;;165.85;55.45;;;;;;;4.55;100.00;102096.41;1978633;28;20044;-74
2022/09/22 03:33:01;;;;;;;168.75;54.28;;;;;;;4.57;100.00;102093.84;1978414;28;20025;-74
2022/09/22 03:33:59;;;;;;;180.60;57.17;;;;;;;4.58;100.00;102096.44;1978385;28;20702;-75
2022/09/22 03:34:57;;;;;;;175.63;57.13;;;;;;;4.58;100.00;102090.41;1978702;28;20088;-74
2022/09/22 03:35:55;;;;;;;182.70;57.42;;;;;;;4.56;100.00;102087.81;1978507;28;20042;-75
2022/09/22 03:36:52;;;;;;;183.65;57.38;;;;;;;4.55;100.00;102087.81;1978629;28;20025;-76
2022/09/22 03:37:50;;;;;;;181.93;56.15;;;;;;;4.54;100.00;102086.94;1978603;28;20042;-74
2022/09/22 03:38:47;;;;;;;187.65;58.42;;;;;;;4.54;100.00;102088.66;1978619;28;20495;-74
2022/09/22 03:39:45;;;;;;;186.32;57.65;;;;;;;4.57;100.00;102088.66;1978624;28;20095;-74
2022/09/22 03:40:50;;;;;;;178.00;57.53;;;;;;;4.59;100.00;102086.97;1978604;28;20035;-74
2022/09/22 03:41:48;;;;;;;179.68;56.53;;;;;;;4.57;100.00;102089.53;1976530;28;20021;-74
2022/09/22 03:42:46;;;;;;;184.20;55.75;;;;;;;4.58;100.00;102091.25;1978492;28;20017;-73
2022/09/22 03:43:43;;;;;;;185.60;57.25;;;;;;;4.56;100.00;102087.81;1978690;28;20039;-74
2022/09/22 03:44:40;;;;;;;166.82;55.60;;;;;;;4.54;100.00;102084.34;1985638;28;20120;-74
2022/09/22 03:45:38;;;;;;;183.90;54.40;;;;;;;4.51;100.00;102085.22;1985830;28;20392;-74
2022/09/22 03:46:35;;;;;;;183.43;54.97;;;;;;;4.49;100.00;102089.50;1985637;28;20038;-73
2022/09/22 03:47:36;;;;;;;176.05;55.65;;;;;;;4.47;100.00;102086.06;1985835;28;20509;-75
2022/09/22 03:48:33;;;;;;;167.65;55.42;;;;;;;4.45;100.00;102085.19;1979109;28;20021;-74
2022/09/22 03:49:31;;;;;;;179.23;55.67;;;;;;;4.44;100.00;102087.75;1977929;28;20055;-74
2022/09/22 03:50:29;;;;;;;177.75;55.45;;;;;;;4.42;100.00;102084.31;1977967;28;20145;-74
2022/09/22 03:51:26;;;;;;;170.30;55.28;;;;;;;4.40;100.00;102079.16;1978521;28;20082;-73
2022/09/22 03:52:24;;;;;;;183.82;56.38;;;;;;;4.43;100.00;102086.03;1977551;28;20502;-73
2022/09/22 03:53:26;;;;;;;182.85;55.58;;;;;;;4.45;100.00;102085.19;1977906;28;20033;-74
2022/09/22 03:54:23;;;;;;;177.55;56.10;;;;;;;4.46;100.00;102089.50;1978592;28;20029;-74
2022/09/22 03:55:21;;;;;;;185.52;57.17;;;;;;;4.45;100.00;102086.91;1978435;28;20522;-73
2022/09/22 03:56:19;;;;;;;180.05;57.08;;;;;;;4.44;100.00;102083.47;1978419;28;20395;-74
2022/09/22 03:57:17;;;;;;;187.25;56.63;;;;;;;4.43;100.00;102080.88;1978446;28;20401;-73
2022/09/22 03:58:14;;;;;;;174.52;55.47;;;;;;;4.42;100.00;102084.31;1978384;28;20021;-74
2022/09/22 03:59:12;;;;;;;198.57;58.17;;;;;;;4.42;100.00;102084.31;1978495;28;20079;-72
2022/09/22 04:00:12;;;;;;;186.13;57.10;;;;;;;4.42;100.00;102084.31;1978525;28;20047;-73
2022/09/22 04:01:10;;;;;;;184.50;58.65;;;;;;;4.41;100.00;102078.28;1978436;28;20036;-74
2022/09/22 04:02:08;;;;;;;179.00;56.95;;;;;;;4.40;100.00;102080.84;1978614;28;20387;-74
2022/09/22 04:03:06;;;;;;;186.60;57.97;;;;;;;4.37;100.00;102081.72;1978474;28;20040;-74
2022/09/22 04:04:09;;;;;;;182.60;58.58;;;;;;;4.36;100.00;102080.88;1978397;28;20028;-75
2022/09/22 04:05:09;;;;;;;171.52;57.22;;;;;;;4.36;100.00;102080.88;1978484;28;20537;-74
2022/09/22 04:06:07;;;;;;;181.43;58.97;;;;;;;4.38;100.00;102084.31;1978444;28;20481;-73
2022/09/22 04:07:05;;;;;;;178.93;58.17;;;;;;;4.36;100.00;102080.88;1977878;28;20032;-74
2022/09/22 04:08:03;;;;;;;185.60;58.55;;;;;;;4.37;100.00;102082.59;1977788;28;20401;-75
2022/09/22 04:09:00;;;;;;;174.82;56.50;;;;;;;4.36;100.00;102078.28;1978298;28;20094;-73
2022/09/22 04:09:58;;;;;;;175.40;56.97;;;;;;;4.38;100.00;102081.72;1977539;28;20032;-73
2022/09/22 04:10:59;;;;;;;188.05;58.75;;;;;;;4.40;100.00;102076.56;1975971;28;20144;-74
2022/09/22 04:11:57;;;;;;;179.80;58.47;;;;;;;4.40;100.00;102078.28;1978025;28;20029;-73
2022/09/22 04:12:57;;;;;;;178.82;57.60;;;;;;;4.40;100.00;102075.69;1978300;28;20512;-73
2022/09/22 04:13:56;;;;;;;180.52;56.67;;;;;;;4.37;100.00;102080.00;1978313;28;20500;-73
2022/09/22 04:14:59;;;;;;;184.93;57.25;;;;;;;4.39;100.00;102074.84;1978486;28;20021;-74
2022/09/22 04:15:56;;;;;;;192.38;56.47;;;;;;;4.37;100.00;102077.41;1977595;28;20040;-74
2022/09/22 04:16:54;;;;;;;186.38;57.90;;;;;;;4.36;100.00;102075.69;1977701;28;20035;-72
2022/09/22 04:17:51;;;;;;;187.60;58.00;;;;;;;4.36;100.00;102069.66;1978194;28;20112;-72
2022/09/22 04:18:55;;;;;;;171.40;58.60;;;;;;;4.37;100.00;102071.38;1978313;28;20119;-72
2022/09/22 04:19:56;;;;;;;187.43;59.08;;;;;;;4.36;100.00;102073.13;1978239;28;20044;-72
2022/09/22 04:21:02;;;;;;;176.55;56.28;;;;;;;4.34;100.00;102072.22;1977701;28;20480;-72
2022/09/22 04:22:00;;;;;;;188.75;57.50;;;;;;;4.32;100.00;102073.97;1977634;28;20103;-72
2022/09/22 04:22:58;;;;;;;191.23;57.97;;;;;;;4.32;100.00;102073.97;1978302;28;20531;-72
2022/09/22 04:23:55;;;;;;;182.05;57.08;;;;;;;4.31;100.00;102063.63;1978171;28;20033;-72
2022/09/22 04:24:53;;;;;;;182.75;58.50;;;;;;;4.29;100.00;102068.78;1978336;28;20034;-72
2022/09/22 04:25:51;;;;;;;185.68;57.90;;;;;;;4.28;100.00;102061.88;1977638;28;20373;-72
2022/09/22 04:26:52;;;;;;;183.63;57.80;;;;;;;4.29;100.00;102065.31;1977488;28;20067;-72
2022/09/22 04:27:50;;;;;;;184.88;57.75;;;;;;;4.31;100.00;102072.22;1978218;28;20028;-71
2022/09/22 04:28:47;;;;;;;178.18;56.42;;;;;;;4.31;100.00;102064.47;1978307;28;20032;-73
2022/09/22 04:29:51;;;;;;;172.63;56.13;;;;;;;4.30;100.00;102064.44;1978258;28;20052;-74
2022/09/22 04:30:48;;;;;;;179.50;55.30;;;;;;;4.27;100.00;102065.31;1978136;28;20033;-73
2022/09/22 04:31:46;;;;;;;174.23;54.58;;;;;;;4.28;100.00;102066.19;1978209;28;20417;-72
2022/09/22 04:32:52;;;;;;;174.77;56.13;;;;;;;4.27;100.00;102065.31;1978231;28;20049;-73
2022/09/22 04:33:49;;;;;;;176.07;56.38;;;;;;;4.26;100.00;102066.16;1978109;28;20074;-73
2022/09/22 04:34:50;;;;;;;183.30;56.30;;;;;;;4.28;100.00;102064.47;1978093;28;20451;-72
2022/09/22 04:35:51;;;;;;;180.57;57.60;;;;;;;4.31;100.00;102067.03;1978378;28;20013;-71
2022/09/22 04:36:52;;;;;;;183.55;57.40;;;;;;;4.31;100.00;102066.19;1978007;28;20041;-74
2022/09/22 04:37:52;;;;;;;;;;;;;;;4.31;100.00;102066.19;1978693;28;20040;-72
2022/09/22 04:38:53;;;;;;;173.00;53.90;;;;;;;4.27;100.00;102065.31;1978138;28;20292;-72
2022/09/22 04:39:52;;;;;;;182.15;54.45;;;;;;;4.27;100.00;102070.47;1978072;28;20056;-72
2022/09/22 04:40:52;;;;;;;183.27;55.47;;;;;;;4.25;100.00;102067.03;1985252;28;20028;-73
2022/09/22 04:41:49;;;;;;;184.65;55.85;;;;;;;4.23;100.00;102068.75;1983549;28;20070;-72
2022/09/22 04:42:53;;;;;;;199.35;59.33;;;;;;;4.23;100.00;102066.16;1976950;28;20536;-71
2022/09/22 04:43:50;;;;;;;188.55;56.55;;;;;;;4.20;100.00;102072.19;1977586;28;20048;-72
2022/09/22 04:44:48;;;;;;;182.60;57.65;;;;;;;4.21;100.00;102071.31;1978107;28;20524;-71
2022/09/22 04:45:47;;;;;;;186.07;59.53;;;;;;;4.20;100.00;102066.13;1978265;28;20391;-73
2022/09/22 04:46:45;;;;;;;171.95;56.55;;;;;;;4.19;100.00;102067.00;1978023;28;20032;-72
2022/09/22 04:47:50;;;;;;;193.43;56.15;;;;;;;4.19;100.00;102062.72;1978058;28;20040;-71
2022/09/22 04:48:50;;;;;;;185.70;56.15;;;;;;;4.19;100.00;102072.16;1978132;28;20064;-71
2022/09/22 04:49:47;;;;;;;180.70;55.65;;;;;;;4.17;100.00;102066.16;1985346;28;20035;-73